createdAt,value
2019-04-06T00:00:37.907Z,92.10
2019-04-06T00:03:06.813Z,92.10
2019-04-06T00:05:35.762Z,92.00
2019-04-06T00:08:04.617Z,92.30
2019-04-06T00:10:33.543Z,92.40
2019-04-06T00:13:02.334Z,92.50
2019-04-06T00:15:31.163Z,92.40
2019-04-06T00:18:00.070Z,92.60
2019-04-06T00:20:28.930Z,92.70
2019-04-06T00:22:57.791Z,93.10
2019-04-06T00:25:26.690Z,92.80
2019-04-06T00:27:55.528Z,92.80
2019-04-06T00:30:24.367Z,92.70
2019-04-06T00:32:54.844Z,92.40
2019-04-06T00:35:23.688Z,92.50
2019-04-06T00:37:52.535Z,93.20
2019-04-06T00:40:21.434Z,93.10
2019-04-06T00:42:50.297Z,92.80
2019-04-06T00:45:19.237Z,92.80
2019-04-06T00:47:48.140Z,92.90
2019-04-06T00:50:16.991Z,93.10
2019-04-06T00:52:45.892Z,93.20
2019-04-06T00:55:14.964Z,93.00
2019-04-06T00:57:43.822Z,93.00
2019-04-06T01:00:13.183Z,93.20
2019-04-06T01:02:42.081Z,92.70
2019-04-06T01:05:11.322Z,92.70
2019-04-06T01:07:40.185Z,92.80
2019-04-06T01:10:09.166Z,93.10
2019-04-06T01:12:38.018Z,92.80
2019-04-06T01:15:06.972Z,92.80
2019-04-06T01:17:35.887Z,92.60
2019-04-06T01:20:05.786Z,92.80
2019-04-06T01:22:34.599Z,93.00
2019-04-06T01:25:04.490Z,93.10
2019-04-06T01:27:33.340Z,93.20
2019-04-06T01:30:02.207Z,93.30
2019-04-06T01:32:31.078Z,92.90
2019-04-06T01:34:59.929Z,93.00
2019-04-06T01:37:28.796Z,93.10
2019-04-06T01:39:57.730Z,93.20
2019-04-06T01:42:26.591Z,93.00
2019-04-06T01:44:55.461Z,93.20
2019-04-06T01:47:30.335Z,93.30
2019-04-06T01:50:02.248Z,93.30
2019-04-06T01:52:31.095Z,93.30
2019-04-06T01:55:00.017Z,93.00
2019-04-06T01:57:28.886Z,93.20
2019-04-06T01:59:57.734Z,93.70
2019-04-06T02:02:28.180Z,93.40
2019-04-06T02:04:57.046Z,93.30
2019-04-06T02:07:25.902Z,93.40
2019-04-06T02:09:54.791Z,93.70
2019-04-06T02:12:23.639Z,93.90
2019-04-06T02:14:52.489Z,93.90
2019-04-06T02:17:21.528Z,94.30
2019-04-06T02:19:50.396Z,94.40
2019-04-06T02:22:19.235Z,94.50
2019-04-06T02:24:48.149Z,94.40
2019-04-06T02:27:17.017Z,94.40
2019-04-06T02:29:45.865Z,94.20
2019-04-06T02:32:31.397Z,94.40
2019-04-06T02:35:14.206Z,94.60
2019-04-06T02:37:47.592Z,94.80
2019-04-06T02:40:30.145Z,95.20
2019-04-06T02:43:00.879Z,95.20
2019-04-06T02:45:29.765Z,95.00
2019-04-06T02:47:58.623Z,95.30
2019-04-06T02:50:27.680Z,95.50
2019-04-06T02:52:56.607Z,95.70
2019-04-06T02:55:25.471Z,96.00
2019-04-06T02:57:54.370Z,96.00
2019-04-06T03:00:23.251Z,95.50
2019-04-06T03:02:52.161Z,95.20
2019-04-06T03:05:21.061Z,95.00
2019-04-06T03:07:49.906Z,95.30
2019-04-06T03:10:18.766Z,95.80
2019-04-06T03:12:47.689Z,96.20
2019-04-06T03:15:16.540Z,95.90
2019-04-06T03:17:45.385Z,95.10
2019-04-06T03:20:14.365Z,94.90
2019-04-06T03:22:43.238Z,95.50
2019-04-06T03:25:12.370Z,95.30
2019-04-06T03:27:41.272Z,95.10
2019-04-06T03:30:10.308Z,94.90
2019-04-06T03:32:39.156Z,95.30
2019-04-06T03:35:08.176Z,95.70
2019-04-06T03:37:40.784Z,95.90
2019-04-06T03:40:09.954Z,96.20
2019-04-06T03:42:38.882Z,96.50
2019-04-06T03:45:08.728Z,96.50
2019-04-06T03:47:37.580Z,96.80
2019-04-06T03:50:08.202Z,96.40
2019-04-06T03:52:37.126Z,96.10
2019-04-06T03:55:07.598Z,96.10
2019-04-06T03:57:36.510Z,96.10
2019-04-06T04:00:06.577Z,96.30
2019-04-06T04:02:35.466Z,96.00
2019-04-06T04:05:05.668Z,96.20
2019-04-06T04:07:34.506Z,96.20
2019-04-06T04:10:04.548Z,95.90
2019-04-06T04:12:33.467Z,95.90
2019-04-06T04:15:02.308Z,95.70
2019-04-06T04:17:31.249Z,95.70
2019-04-06T04:20:00.191Z,95.70
2019-04-06T04:22:29.027Z,95.80
2019-04-06T04:24:57.907Z,95.50
2019-04-06T04:27:29.697Z,95.40
2019-04-06T04:29:57.310Z,95.00
2019-04-06T04:32:26.167Z,95.20
2019-04-06T04:34:55.070Z,95.10
2019-04-06T04:37:24.141Z,95.10
2019-04-06T04:39:53.004Z,94.80
2019-04-06T04:42:21.886Z,94.60
2019-04-06T04:44:50.744Z,94.50
2019-04-06T04:47:19.610Z,94.40
2019-04-06T04:49:48.541Z,94.00
2019-04-06T04:52:17.426Z,94.10
2019-04-06T04:54:46.250Z,94.30
2019-04-06T04:57:15.379Z,94.80
2019-04-06T04:59:44.281Z,95.20
2019-04-06T05:02:13.122Z,94.90
2019-04-06T05:04:42.014Z,94.20
2019-04-06T05:07:10.878Z,94.20
2019-04-06T05:09:39.685Z,94.30
2019-04-06T05:12:08.538Z,94.30
2019-04-06T05:14:59.416Z,94.30
2019-04-06T05:17:28.683Z,94.00
2019-04-06T05:19:57.848Z,93.50
2019-04-06T05:22:26.877Z,93.10
2019-04-06T05:24:55.852Z,93.00
2019-04-06T05:27:24.760Z,93.10
2019-04-06T05:29:53.632Z,92.90
2019-04-06T05:32:22.646Z,92.70
2019-04-06T05:34:51.490Z,92.70
2019-04-06T05:37:20.409Z,92.70
2019-04-06T05:39:49.361Z,92.70
2019-04-06T05:42:18.424Z,92.50
2019-04-06T05:44:47.283Z,92.30
2019-04-06T05:47:16.199Z,92.10
2019-04-06T05:49:45.040Z,91.80
2019-04-06T05:52:13.881Z,91.70
2019-04-06T05:54:42.781Z,91.60
2019-04-06T05:57:11.655Z,91.70
2019-04-06T05:59:41.071Z,91.70
2019-04-06T06:02:10.687Z,92.10
2019-04-06T06:04:40.571Z,92.20
2019-04-06T06:07:09.902Z,92.70
2019-04-06T06:09:38.879Z,93.00
2019-04-06T06:12:08.961Z,93.30
2019-04-06T06:14:37.784Z,93.60
2019-04-06T06:17:06.804Z,93.90
2019-04-06T06:19:35.698Z,94.10
2019-04-06T06:22:04.709Z,94.30
2019-04-06T06:24:34.823Z,93.90
2019-04-06T06:27:03.985Z,93.60
2019-04-06T06:29:32.897Z,93.50
2019-04-06T06:32:06.740Z,93.30
2019-04-06T06:34:37.245Z,93.40
2019-04-06T06:37:06.103Z,93.40
2019-04-06T06:39:35.006Z,92.70
2019-04-06T06:42:04.623Z,92.00
2019-04-06T06:44:33.457Z,91.60
2019-04-06T06:47:02.352Z,90.90
2019-04-06T06:49:31.262Z,90.30
2019-04-06T06:52:00.335Z,89.30
2019-04-06T06:54:30.705Z,87.30
2019-04-06T06:57:02.345Z,85.40
2019-04-06T06:59:31.258Z,84.00
2019-04-06T07:02:00.204Z,83.50
2019-04-06T07:04:29.200Z,82.30
2019-04-06T07:06:58.053Z,79.90
2019-04-06T07:09:28.523Z,75.30
2019-04-06T07:11:57.385Z,69.30
2019-04-06T07:14:26.245Z,61.60
2019-04-06T07:16:55.159Z,57.40
2019-04-06T07:19:24.014Z,55.80
2019-04-06T07:21:52.885Z,54.20
2019-04-06T07:24:21.839Z,52.30
2019-04-06T07:26:50.692Z,50.40
2019-04-06T07:29:19.537Z,48.40
2019-04-06T07:31:48.445Z,47.70
2019-04-06T07:34:17.989Z,47.60
2019-04-06T07:36:46.878Z,45.90
2019-04-06T07:39:15.785Z,45.70
2019-04-06T07:41:44.625Z,44.60
2019-04-06T07:44:13.479Z,44.00
2019-04-06T07:46:42.412Z,42.30
2019-04-06T07:49:11.272Z,40.90
2019-04-06T07:51:40.140Z,39.70
2019-04-06T07:54:09.045Z,40.20
2019-04-06T07:56:37.900Z,40.80
2019-04-06T07:59:06.932Z,40.30
2019-04-06T08:01:35.903Z,39.20
2019-04-06T08:04:04.856Z,38.00
2019-04-06T08:06:33.738Z,37.80
2019-04-06T08:09:02.974Z,36.90
2019-04-06T08:11:31.787Z,37.20
2019-04-06T08:14:00.640Z,35.50
2019-04-06T08:16:29.559Z,35.00
2019-04-06T08:18:58.565Z,33.80
2019-04-06T08:21:27.552Z,34.30
2019-04-06T08:23:56.452Z,33.10
2019-04-06T08:26:25.295Z,32.10
2019-04-06T08:29:00.130Z,31.20
2019-04-06T08:31:24.788Z,31.90
2019-04-06T08:33:53.869Z,29.90
2019-04-06T08:36:22.738Z,30.20
2019-04-06T08:38:51.632Z,30.90
2019-04-06T08:41:20.498Z,31.00
2019-04-06T08:43:49.362Z,31.10
2019-04-06T08:46:18.428Z,30.10
2019-04-06T08:48:47.350Z,30.20
2019-04-06T08:51:16.217Z,30.40
2019-04-06T08:53:45.212Z,31.00
2019-04-06T08:56:14.116Z,30.40
2019-04-06T08:58:42.969Z,30.50
2019-04-06T09:01:11.862Z,29.70
2019-04-06T09:03:40.727Z,29.20
2019-04-06T09:06:09.577Z,28.80
2019-04-06T09:08:38.497Z,28.70
2019-04-06T09:11:07.334Z,28.10
2019-04-06T09:13:36.181Z,28.80
2019-04-06T09:16:05.216Z,28.90
2019-04-06T09:18:34.080Z,29.10
2019-04-06T09:21:02.947Z,29.20
2019-04-06T09:23:31.818Z,28.90
2019-04-06T09:26:00.687Z,28.20
2019-04-06T09:28:29.722Z,27.80
2019-04-06T09:30:58.702Z,27.40
2019-04-06T09:33:27.622Z,26.90
2019-04-06T09:35:56.520Z,27.40
2019-04-06T09:38:25.459Z,27.80
2019-04-06T09:40:54.331Z,26.70
2019-04-06T09:43:23.273Z,27.50
2019-04-06T09:45:56.853Z,27.20
2019-04-06T09:48:30.431Z,27.70
2019-04-06T09:51:17.083Z,26.90
2019-04-06T09:54:07.330Z,26.40
2019-04-06T09:56:54.047Z,26.20
2019-04-06T09:59:34.852Z,25.80
2019-04-06T10:02:13.020Z,25.80
2019-04-06T10:04:49.543Z,26.00
2019-04-06T10:07:38.733Z,25.70
2019-04-06T10:10:15.197Z,26.00
2019-04-06T10:12:45.667Z,26.30
2019-04-06T10:15:17.643Z,25.70
2019-04-06T10:17:48.380Z,25.70
2019-04-06T10:20:24.298Z,25.70
2019-04-06T10:22:54.717Z,27.30
2019-04-06T10:25:37.701Z,29.40
2019-04-06T10:28:14.037Z,29.80
2019-04-06T10:30:54.098Z,31.20
2019-04-06T10:33:40.875Z,33.10
2019-04-06T10:36:17.195Z,33.20
2019-04-06T10:38:56.445Z,34.30
2019-04-06T10:41:43.348Z,34.50
2019-04-06T10:44:17.153Z,34.80
2019-04-06T10:46:48.159Z,34.80
2019-04-06T10:49:27.824Z,35.40
2019-04-06T10:52:01.043Z,35.00
2019-04-06T10:54:37.703Z,35.10
2019-04-06T10:57:24.621Z,35.50
2019-04-06T11:00:11.313Z,34.40
2019-04-06T11:02:47.762Z,34.40
2019-04-06T11:05:33.314Z,34.20
2019-04-06T11:08:04.950Z,34.20
2019-04-06T11:10:41.168Z,34.80
2019-04-06T11:13:17.626Z,34.40
2019-04-06T11:15:48.048Z,34.10
2019-04-06T11:18:30.851Z,34.70
2019-04-06T11:21:01.276Z,33.90
2019-04-06T11:23:32.035Z,34.10
2019-04-06T11:26:02.711Z,34.20
2019-04-06T11:28:33.191Z,35.00
2019-04-06T11:31:19.727Z,35.40
2019-04-06T11:34:08.251Z,36.00
2019-04-06T11:36:47.828Z,35.60
2019-04-06T11:39:33.577Z,34.90
2019-04-06T11:42:22.077Z,34.90
2019-04-06T11:45:04.754Z,35.30
2019-04-06T11:47:44.075Z,36.30
2019-04-06T11:50:23.748Z,36.00
2019-04-06T11:52:54.297Z,35.80
2019-04-06T11:55:24.985Z,35.40
2019-04-06T11:58:01.707Z,36.00
2019-04-06T12:00:44.128Z,35.60
2019-04-06T12:03:23.354Z,35.10
2019-04-06T12:06:02.964Z,35.30
2019-04-06T12:08:45.654Z,35.50
2019-04-06T12:11:16.247Z,35.60
2019-04-06T12:13:46.895Z,35.00
2019-04-06T12:16:29.079Z,35.30
2019-04-06T12:19:15.147Z,36.20
2019-04-06T12:21:45.705Z,36.60
2019-04-06T12:24:21.936Z,36.90
2019-04-06T12:26:55.441Z,36.20
2019-04-06T12:29:26.153Z,36.80
2019-04-06T12:32:12.787Z,36.70
2019-04-06T12:34:43.213Z,37.00
2019-04-06T12:37:32.022Z,37.00
2019-04-06T12:40:14.428Z,37.20
2019-04-06T12:42:45.120Z,37.40
2019-04-06T12:45:24.393Z,37.50
2019-04-06T12:48:09.909Z,37.90
2019-04-06T12:50:58.426Z,38.40
2019-04-06T12:53:28.889Z,38.30
2019-04-06T12:56:02.267Z,38.50
2019-04-06T12:58:38.751Z,38.30
2019-04-06T13:01:09.188Z,39.30
2019-04-06T13:03:42.675Z,41.40
2019-04-06T13:06:19.618Z,41.70
2019-04-06T13:08:50.273Z,43.20
2019-04-06T13:11:23.994Z,42.40
2019-04-06T13:13:57.633Z,42.20
2019-04-06T13:16:44.659Z,42.00
2019-04-06T13:19:30.109Z,43.40
2019-04-06T13:22:12.517Z,44.40
2019-04-06T13:24:57.724Z,45.20
2019-04-06T13:27:30.733Z,45.40
2019-04-06T13:30:10.753Z,45.90
2019-04-06T13:32:41.484Z,46.20
2019-04-06T13:35:15.143Z,46.50
2019-04-06T13:37:54.726Z,47.40
2019-04-06T13:40:34.388Z,47.60
2019-04-06T13:43:11.066Z,47.70
2019-04-06T13:45:58.276Z,47.70
2019-04-06T13:48:29.108Z,48.30
2019-04-06T13:51:11.737Z,48.40
2019-04-06T13:53:42.169Z,48.60
2019-04-06T13:56:12.608Z,48.50
2019-04-06T13:58:45.961Z,48.50
2019-04-06T14:01:17.677Z,48.70
2019-04-06T14:04:04.853Z,49.40
2019-04-06T14:06:47.115Z,48.80
2019-04-06T14:09:17.640Z,49.50
2019-04-06T14:11:56.920Z,49.90
2019-04-06T14:14:30.474Z,50.30
2019-04-06T14:17:09.963Z,50.30
2019-04-06T14:19:46.114Z,50.10
2019-04-06T14:22:19.885Z,50.20
2019-04-06T14:25:07.033Z,50.50
2019-04-06T14:27:37.559Z,50.20
2019-04-06T14:30:14.890Z,50.40
2019-04-06T14:32:57.722Z,49.90
2019-04-06T14:35:28.167Z,50.40
2019-04-06T14:37:59.005Z,51.00
2019-04-06T14:40:47.929Z,50.80
2019-04-06T14:43:30.055Z,50.80
2019-04-06T14:46:00.976Z,50.90
2019-04-06T14:48:47.666Z,50.90
2019-04-06T14:51:18.163Z,51.10
2019-04-06T14:53:48.565Z,51.20
2019-04-06T14:56:25.409Z,51.60
2019-04-06T14:59:10.698Z,51.70
2019-04-06T15:01:55.993Z,52.20
2019-04-06T15:04:15.954Z,52.10
2019-04-06T15:07:10.726Z,52.00
2019-04-06T15:09:36.400Z,51.70
2019-04-06T15:12:13.519Z,51.60
2019-04-06T15:14:45.099Z,52.20
2019-04-06T15:17:28.007Z,52.40
2019-04-06T15:20:13.478Z,52.20
2019-04-06T15:23:00.418Z,52.00
2019-04-06T15:25:48.642Z,52.20
2019-04-06T15:28:31.212Z,52.00
2019-04-06T15:31:07.111Z,52.00
2019-04-06T15:33:54.083Z,52.30
2019-04-06T15:36:37.827Z,53.20
2019-04-06T15:39:27.320Z,53.10
2019-04-06T15:41:57.881Z,53.30
2019-04-06T15:44:28.284Z,53.00
2019-04-06T15:46:59.019Z,53.00
2019-04-06T15:49:29.824Z,53.00
2019-04-06T15:52:10.316Z,52.80
2019-04-06T15:54:38.335Z,53.00
2019-04-06T15:57:24.951Z,53.70
2019-04-06T16:00:04.226Z,53.70
2019-04-06T16:02:49.925Z,53.70
2019-04-06T16:05:23.116Z,54.20
2019-04-06T16:08:10.159Z,54.80
2019-04-06T16:10:40.640Z,55.40
2019-04-06T16:13:27.545Z,55.60
2019-04-06T16:16:07.688Z,55.70
2019-04-06T16:18:40.874Z,55.60
2019-04-06T16:21:23.709Z,56.20
2019-04-06T16:24:06.799Z,56.20
2019-04-06T16:26:37.753Z,56.30
2019-04-06T16:29:08.200Z,56.50
2019-04-06T16:31:53.795Z,56.60
2019-04-06T16:34:30.173Z,56.80
2019-04-06T16:37:18.752Z,57.00
2019-04-06T16:39:58.414Z,57.40
2019-04-06T16:42:36.116Z,57.40
2019-04-06T16:45:10.742Z,57.30
2019-04-06T16:47:43.971Z,57.20
2019-04-06T16:50:26.372Z,57.10
2019-04-06T16:52:56.832Z,57.00
2019-04-06T16:55:39.345Z,57.50
2019-04-06T16:58:28.323Z,57.80
2019-04-06T17:01:01.682Z,57.70
2019-04-06T17:03:37.848Z,58.10
2019-04-06T17:06:14.593Z,58.20
2019-04-06T17:08:45.929Z,59.00
2019-04-06T17:11:31.509Z,59.10
2019-04-06T17:14:14.741Z,59.10
2019-04-06T17:16:53.782Z,59.60
2019-04-06T17:19:40.548Z,59.40
2019-04-06T17:22:27.380Z,59.20
2019-04-06T17:25:07.493Z,58.80
2019-04-06T17:27:38.026Z,58.80
2019-04-06T17:30:26.055Z,58.80
2019-04-06T17:32:59.483Z,58.80
2019-04-06T17:35:32.725Z,58.90
2019-04-06T17:38:19.365Z,58.80
2019-04-06T17:40:59.185Z,58.80
2019-04-06T17:43:29.573Z,58.40
2019-04-06T17:46:00.043Z,58.00
2019-04-06T17:48:33.951Z,58.00
2019-04-06T17:51:23.448Z,57.90
2019-04-06T17:53:58.016Z,58.00
2019-04-06T17:56:31.117Z,57.80
2019-04-06T17:59:13.679Z,58.00
2019-04-06T18:01:46.943Z,58.10
2019-04-06T18:04:23.871Z,58.10
2019-04-06T18:07:03.736Z,58.30
2019-04-06T18:09:40.085Z,59.20
2019-04-06T18:12:10.570Z,59.50
2019-04-06T18:14:39.528Z,59.80
2019-04-06T18:17:08.871Z,59.80
2019-04-06T18:19:38.753Z,59.70
2019-04-06T18:22:07.905Z,60.40
2019-04-06T18:24:37.402Z,60.70
2019-04-06T18:27:06.424Z,60.90
2019-04-06T18:29:35.307Z,61.10
2019-04-06T18:32:08.793Z,61.50
2019-04-06T18:34:37.653Z,61.80
2019-04-06T18:37:08.092Z,62.00
2019-04-06T18:39:37.283Z,62.10
2019-04-06T18:42:06.283Z,62.90
2019-04-06T18:44:35.337Z,62.60
2019-04-06T18:47:04.182Z,62.70
2019-04-06T18:49:33.161Z,63.60
2019-04-06T18:52:02.077Z,64.20
2019-04-06T18:54:31.263Z,65.00
2019-04-06T18:57:00.560Z,64.10
2019-04-06T18:59:29.478Z,65.00
2019-04-06T19:01:58.894Z,65.50
2019-04-06T19:04:29.342Z,65.90
2019-04-06T19:06:58.338Z,65.50
2019-04-06T19:09:27.975Z,65.90
2019-04-06T19:11:57.411Z,66.50
2019-04-06T19:14:26.292Z,67.10
2019-04-06T19:16:55.222Z,68.00
2019-04-06T19:19:24.069Z,68.70
2019-04-06T19:21:53.467Z,69.40
2019-04-06T19:24:22.576Z,69.80
2019-04-06T19:26:51.436Z,69.80
2019-04-06T19:29:20.275Z,69.70
2019-04-06T19:31:52.635Z,70.20
2019-04-06T19:34:21.620Z,69.30
2019-04-06T19:36:50.879Z,70.10
2019-04-06T19:39:19.893Z,70.60
2019-04-06T19:41:48.738Z,71.00
2019-04-06T19:44:17.602Z,71.50
2019-04-06T19:46:46.606Z,71.70
2019-04-06T19:49:15.450Z,71.50
2019-04-06T19:51:44.304Z,70.90
2019-04-06T19:54:13.200Z,70.40
2019-04-06T19:56:42.051Z,70.50
2019-04-06T19:59:12.934Z,71.70
2019-04-06T20:01:41.435Z,72.80
2019-04-06T20:04:10.290Z,73.30
2019-04-06T20:06:39.129Z,74.00
2019-04-06T20:09:08.729Z,74.10
2019-04-06T20:11:37.584Z,74.50
2019-04-06T20:14:06.492Z,74.40
2019-04-06T20:16:37.244Z,74.10
2019-04-06T20:19:06.115Z,74.30
2019-04-06T20:21:34.967Z,73.70
2019-04-06T20:24:05.147Z,73.50
2019-04-06T20:26:34.050Z,72.40
2019-04-06T20:29:02.907Z,72.30
2019-04-06T20:31:32.588Z,72.30
2019-04-06T20:34:03.399Z,72.60
2019-04-06T20:36:32.257Z,72.50
2019-04-06T20:39:01.958Z,74.00
2019-04-06T20:41:30.938Z,74.50
2019-04-06T20:44:01.219Z,74.60
2019-04-06T20:46:30.115Z,75.60
2019-04-06T20:48:58.986Z,75.70
2019-04-06T20:51:27.876Z,76.00
2019-04-06T20:53:56.839Z,76.20
2019-04-06T20:56:26.091Z,76.50
2019-04-06T20:58:55.052Z,77.00
2019-04-06T21:01:23.942Z,77.00
2019-04-06T21:03:59.865Z,77.10
2019-04-06T21:06:23.442Z,77.20
2019-04-06T21:08:52.514Z,78.00
2019-04-06T21:11:21.440Z,78.70
2019-04-06T21:13:50.289Z,79.80
2019-04-06T21:16:19.402Z,80.50
2019-04-06T21:18:48.247Z,80.40
2019-04-06T21:21:17.604Z,80.50
2019-04-06T21:23:46.893Z,80.00
2019-04-06T21:26:16.108Z,80.40
2019-04-06T21:28:45.524Z,80.60
2019-04-06T21:31:15.074Z,81.30
2019-04-06T21:33:45.886Z,82.00
2019-04-06T21:36:15.567Z,82.70
2019-04-06T21:38:44.655Z,82.70
2019-04-06T21:41:13.742Z,82.70
2019-04-06T21:43:42.714Z,82.70
2019-04-06T21:46:12.174Z,82.60
2019-04-06T21:48:41.279Z,82.80
2019-04-06T21:51:10.248Z,83.10
2019-04-06T21:53:41.217Z,83.20
2019-04-06T21:56:12.953Z,83.40
2019-04-06T21:58:41.827Z,82.90
2019-04-06T22:01:12.012Z,82.20
2019-04-06T22:03:48.548Z,82.80
2019-04-06T22:06:20.664Z,83.40
2019-04-06T22:08:55.618Z,83.20
2019-04-06T22:11:33.359Z,83.00
2019-04-06T22:14:08.462Z,83.70
2019-04-06T22:16:45.800Z,84.50
2019-04-06T22:19:16.915Z,83.40
2019-04-06T22:21:51.628Z,83.60
2019-04-06T22:24:45.080Z,84.10
2019-04-06T22:27:18.561Z,84.60
2019-04-06T22:29:53.236Z,85.20
2019-04-06T22:32:34.375Z,85.20
2019-04-06T22:35:09.210Z,85.80
2019-04-06T22:37:40.673Z,85.90
2019-04-06T22:40:09.907Z,85.90
2019-04-06T22:42:40.228Z,85.70
2019-04-06T22:45:12.108Z,85.20
2019-04-06T22:47:41.491Z,85.20
2019-04-06T22:50:10.874Z,85.40
2019-04-06T22:52:39.917Z,86.00
2019-04-06T22:55:10.175Z,86.00
2019-04-06T22:57:39.052Z,86.00
2019-04-06T23:00:11.511Z,85.90
2019-04-06T23:02:58.838Z,86.00
2019-04-06T23:05:35.674Z,86.20
2019-04-06T23:08:04.683Z,86.20
2019-04-06T23:10:33.837Z,86.10
2019-04-06T23:13:03.378Z,85.90
2019-04-06T23:15:32.611Z,86.00
2019-04-06T23:18:01.448Z,86.30
2019-04-06T23:20:30.378Z,86.60
2019-04-06T23:22:59.458Z,87.00
2019-04-06T23:25:28.883Z,87.30
2019-04-06T23:27:58.424Z,87.60
2019-04-06T23:30:27.259Z,88.10
2019-04-06T23:32:56.093Z,87.90
2019-04-06T23:35:25.175Z,87.60
2019-04-06T23:37:54.086Z,87.40
2019-04-06T23:40:22.930Z,87.90
2019-04-06T23:42:51.820Z,86.90
2019-04-06T23:45:20.759Z,87.00
2019-04-06T23:47:50.045Z,87.10
2019-04-06T23:50:19.107Z,87.40
2019-04-06T23:52:47.965Z,87.90
2019-04-06T23:55:16.789Z,88.10
2019-04-06T23:57:45.723Z,88.50
